createdAt,value
2019-04-06T00:01:30.857Z,82.30
2019-04-06T00:04:00.736Z,81.70
2019-04-06T00:06:30.387Z,82.30
2019-04-06T00:09:00.030Z,82.20
2019-04-06T00:11:29.949Z,82.20
2019-04-06T00:13:59.580Z,82.20
2019-04-06T00:16:29.446Z,82.00
2019-04-06T00:18:59.361Z,82.30
2019-04-06T00:21:29.072Z,82.30
2019-04-06T00:23:58.727Z,82.30
2019-04-06T00:26:28.645Z,81.80
2019-04-06T00:28:58.329Z,81.50
2019-04-06T00:31:49.681Z,81.90
2019-04-06T00:34:19.453Z,81.00
2019-04-06T00:36:49.117Z,80.30
2019-04-06T00:39:18.744Z,79.90
2019-04-06T00:41:48.423Z,80.30
2019-04-06T00:44:18.121Z,80.30
2019-04-06T00:46:47.856Z,80.40
2019-04-06T00:49:17.466Z,80.10
2019-04-06T00:51:47.133Z,80.00
2019-04-06T00:54:17.208Z,79.70
2019-04-06T00:56:47.053Z,79.60
2019-04-06T00:59:16.678Z,79.10
2019-04-06T01:01:46.366Z,79.00
2019-04-06T01:04:16.279Z,79.00
2019-04-06T01:06:45.916Z,79.00
2019-04-06T01:09:16.141Z,78.60
2019-04-06T01:11:45.815Z,78.60
2019-04-06T01:14:15.749Z,77.90
2019-04-06T01:16:45.741Z,78.60
2019-04-06T01:19:15.612Z,78.20
2019-04-06T01:21:45.307Z,78.10
2019-04-06T01:24:15.041Z,78.20
2019-04-06T01:26:44.699Z,78.20
2019-04-06T01:29:14.301Z,77.90
2019-04-06T01:31:43.958Z,78.40
2019-04-06T01:34:13.583Z,78.50
2019-04-06T01:36:43.432Z,78.90
2019-04-06T01:39:13.066Z,79.30
2019-04-06T01:41:43.262Z,78.90
2019-04-06T01:44:13.212Z,79.20
2019-04-06T01:46:42.872Z,79.20
2019-04-06T01:49:12.510Z,78.60
2019-04-06T01:51:42.470Z,79.20
2019-04-06T01:54:12.125Z,79.40
2019-04-06T01:56:41.775Z,78.60
2019-04-06T01:59:11.456Z,79.40
2019-04-06T02:02:02.791Z,79.30
2019-04-06T02:04:32.431Z,78.90
2019-04-06T02:07:02.106Z,78.80
2019-04-06T02:09:32.075Z,78.90
2019-04-06T02:12:01.859Z,79.10
2019-04-06T02:14:31.469Z,79.20
2019-04-06T02:17:01.121Z,79.20
2019-04-06T02:19:31.008Z,79.00
2019-04-06T02:22:00.640Z,79.20
2019-04-06T02:24:30.252Z,79.00
2019-04-06T02:26:59.906Z,79.30
2019-04-06T02:29:29.545Z,79.50
2019-04-06T02:32:16.731Z,79.70
2019-04-06T02:35:03.907Z,79.70
2019-04-06T02:37:50.961Z,79.90
2019-04-06T02:40:44.580Z,79.80
2019-04-06T02:43:17.823Z,80.30
2019-04-06T02:45:47.455Z,80.10
2019-04-06T02:48:17.618Z,79.90
2019-04-06T02:50:47.519Z,80.20
2019-04-06T02:53:17.152Z,80.50
2019-04-06T02:55:47.050Z,80.50
2019-04-06T02:58:16.659Z,80.30
2019-04-06T03:00:46.565Z,80.50
2019-04-06T03:03:16.240Z,80.40
2019-04-06T03:05:45.899Z,80.40
2019-04-06T03:08:16.001Z,80.70
2019-04-06T03:10:45.657Z,81.00
2019-04-06T03:13:15.330Z,81.20
2019-04-06T03:15:45.005Z,81.50
2019-04-06T03:18:14.784Z,81.80
2019-04-06T03:20:44.445Z,82.20
2019-04-06T03:23:14.065Z,82.40
2019-04-06T03:25:43.736Z,83.10
2019-04-06T03:28:13.421Z,82.70
2019-04-06T03:30:43.280Z,83.10
2019-04-06T03:33:13.427Z,83.50
2019-04-06T03:35:47.901Z,83.70
2019-04-06T03:38:14.459Z,83.90
2019-04-06T03:40:44.282Z,84.70
2019-04-06T03:43:14.029Z,85.10
2019-04-06T03:45:44.217Z,84.70
2019-04-06T03:48:13.833Z,84.90
2019-04-06T03:50:43.726Z,85.30
2019-04-06T03:53:13.730Z,86.10
2019-04-06T03:55:43.388Z,86.60
2019-04-06T03:58:13.146Z,87.20
2019-04-06T04:00:42.979Z,87.70
2019-04-06T04:03:12.857Z,87.60
2019-04-06T04:05:42.429Z,87.40
2019-04-06T04:08:12.162Z,88.30
2019-04-06T04:10:41.959Z,87.10
2019-04-06T04:13:11.528Z,88.20
2019-04-06T04:15:41.137Z,89.10
2019-04-06T04:18:10.951Z,89.20
2019-04-06T04:20:40.639Z,88.70
2019-04-06T04:23:10.223Z,87.50
2019-04-06T04:25:40.278Z,88.60
2019-04-06T04:28:09.981Z,89.10
2019-04-06T04:30:39.531Z,88.70
2019-04-06T04:33:09.154Z,89.20
2019-04-06T04:35:38.898Z,88.00
2019-04-06T04:38:08.475Z,89.00
2019-04-06T04:40:38.060Z,88.60
2019-04-06T04:43:07.865Z,88.40
2019-04-06T04:45:37.433Z,87.70
2019-04-06T04:48:07.025Z,88.00
2019-04-06T04:50:36.843Z,87.60
2019-04-06T04:53:06.453Z,87.50
2019-04-06T04:55:36.620Z,87.10
2019-04-06T04:58:06.208Z,87.10
2019-04-06T05:00:36.027Z,87.10
2019-04-06T05:03:06.200Z,87.00
2019-04-06T05:05:36.065Z,87.00
2019-04-06T05:08:05.712Z,87.30
2019-04-06T05:10:35.371Z,86.80
2019-04-06T05:13:05.023Z,85.70
2019-04-06T05:15:48.618Z,85.60
2019-04-06T05:18:18.194Z,85.10
2019-04-06T05:20:47.977Z,84.30
2019-04-06T05:23:17.743Z,84.00
2019-04-06T05:25:47.571Z,83.90
2019-04-06T05:28:17.271Z,83.40
2019-04-06T05:30:46.892Z,82.70
2019-04-06T05:33:16.524Z,81.90
2019-04-06T05:35:46.396Z,81.60
2019-04-06T05:38:16.007Z,80.60
2019-04-06T05:40:45.564Z,80.70
2019-04-06T05:43:15.181Z,80.40
2019-04-06T05:45:45.007Z,80.00
2019-04-06T05:48:14.636Z,80.40
2019-04-06T05:50:44.525Z,80.70
2019-04-06T05:53:14.105Z,80.10
2019-04-06T05:55:43.956Z,80.50
2019-04-06T05:58:13.592Z,80.30
2019-04-06T06:00:43.231Z,80.00
2019-04-06T06:03:15.275Z,80.00
2019-04-06T06:05:44.078Z,78.80
2019-04-06T06:08:13.631Z,78.40
2019-04-06T06:10:43.258Z,78.10
2019-04-06T06:13:12.847Z,76.20
2019-04-06T06:15:42.420Z,76.40
2019-04-06T06:18:11.985Z,76.50
2019-04-06T06:20:42.057Z,76.10
2019-04-06T06:23:11.717Z,75.70
2019-04-06T06:25:41.508Z,74.80
2019-04-06T06:28:14.976Z,74.10
2019-04-06T06:30:42.625Z,74.00
2019-04-06T06:33:12.198Z,73.30
2019-04-06T06:35:41.775Z,73.30
2019-04-06T06:38:11.631Z,72.70
2019-04-06T06:40:41.238Z,71.20
2019-04-06T06:43:11.258Z,71.90
2019-04-06T06:45:41.191Z,71.90
2019-04-06T06:48:10.772Z,72.30
2019-04-06T06:50:40.377Z,72.90
2019-04-06T06:53:09.963Z,72.80
2019-04-06T06:55:39.802Z,72.80
2019-04-06T06:58:09.336Z,72.70
2019-04-06T07:00:38.955Z,72.80
2019-04-06T07:03:08.807Z,72.40
2019-04-06T07:05:38.477Z,71.30
2019-04-06T07:08:08.051Z,71.20
2019-04-06T07:10:37.664Z,70.50
2019-04-06T07:13:07.338Z,70.10
2019-04-06T07:15:37.233Z,69.70
2019-04-06T07:18:06.877Z,69.10
2019-04-06T07:20:36.467Z,68.80
2019-04-06T07:23:06.013Z,68.80
2019-04-06T07:25:35.840Z,68.30
2019-04-06T07:28:05.667Z,67.50
2019-04-06T07:30:35.471Z,66.80
2019-04-06T07:33:05.320Z,65.60
2019-04-06T07:35:34.923Z,64.60
2019-04-06T07:38:04.488Z,63.80
2019-04-06T07:40:34.331Z,64.60
2019-04-06T07:43:03.866Z,63.90
2019-04-06T07:45:33.466Z,63.70
2019-04-06T07:48:03.283Z,63.20
2019-04-06T07:50:32.840Z,62.40
2019-04-06T07:53:02.415Z,61.70
2019-04-06T07:55:31.992Z,60.90
2019-04-06T07:58:01.892Z,59.20
2019-04-06T08:00:31.592Z,58.40
2019-04-06T08:03:01.209Z,58.70
2019-04-06T08:05:30.776Z,56.40
2019-04-06T08:08:00.374Z,54.80
2019-04-06T08:10:29.959Z,53.40
2019-04-06T08:12:59.611Z,48.30
2019-04-06T08:15:29.229Z,48.90
2019-04-06T08:17:58.810Z,46.70
2019-04-06T08:20:28.391Z,47.00
2019-04-06T08:22:58.684Z,45.90
2019-04-06T08:25:28.439Z,45.20
2019-04-06T08:27:58.473Z,42.00
2019-04-06T08:30:28.757Z,42.80
2019-04-06T08:32:58.696Z,42.20
2019-04-06T08:35:28.385Z,41.70
2019-04-06T08:37:58.006Z,43.80
2019-04-06T08:40:27.819Z,43.30
2019-04-06T08:42:57.547Z,43.90
2019-04-06T08:45:27.151Z,44.00
2019-04-06T08:47:57.237Z,43.10
2019-04-06T08:50:26.931Z,41.20
2019-04-06T08:52:56.503Z,39.60
2019-04-06T08:55:26.042Z,39.30
2019-04-06T08:57:55.864Z,37.60
2019-04-06T09:00:25.519Z,37.90
2019-04-06T09:02:55.120Z,37.70
2019-04-06T09:05:24.715Z,37.30
2019-04-06T09:07:54.286Z,35.50
2019-04-06T09:10:24.237Z,34.30
2019-04-06T09:12:54.435Z,35.40
2019-04-06T09:15:24.264Z,35.80
2019-04-06T09:17:54.000Z,37.00
2019-04-06T09:20:23.782Z,37.60
2019-04-06T09:22:53.688Z,38.20
2019-04-06T09:25:23.738Z,37.70
2019-04-06T09:27:53.380Z,37.50
2019-04-06T09:30:22.979Z,37.90
2019-04-06T09:32:52.568Z,37.80
2019-04-06T09:35:22.377Z,37.00
2019-04-06T09:37:52.181Z,36.50
2019-04-06T09:40:22.079Z,35.90
2019-04-06T09:42:51.711Z,35.90
2019-04-06T09:45:43.331Z,35.90
2019-04-06T09:48:40.975Z,36.00
2019-04-06T09:51:19.904Z,36.00
2019-04-06T09:54:08.845Z,34.00
2019-04-06T09:57:09.405Z,33.50
2019-04-06T09:59:48.178Z,32.70
2019-04-06T10:02:42.262Z,32.70
2019-04-06T10:05:30.863Z,33.10
2019-04-06T10:08:18.039Z,32.60
2019-04-06T10:11:09.253Z,32.70
2019-04-06T10:14:04.631Z,33.20
2019-04-06T10:16:56.188Z,31.90
2019-04-06T10:19:44.693Z,33.20
2019-04-06T10:22:31.689Z,32.90
2019-04-06T10:25:20.025Z,34.40
2019-04-06T10:28:14.628Z,34.00
2019-04-06T10:30:57.227Z,34.00
2019-04-06T10:33:44.332Z,33.50
2019-04-06T10:36:45.054Z,33.50
2019-04-06T10:39:31.920Z,34.40
2019-04-06T10:42:10.909Z,35.60
2019-04-06T10:45:00.496Z,34.90
2019-04-06T10:47:48.927Z,33.30
2019-04-06T10:50:43.755Z,34.10
2019-04-06T10:53:44.369Z,35.30
2019-04-06T10:56:22.537Z,33.40
2019-04-06T10:59:14.032Z,34.50
2019-04-06T11:02:01.192Z,33.20
2019-04-06T11:05:04.855Z,32.50
2019-04-06T11:08:05.279Z,32.10
2019-04-06T11:10:57.034Z,32.10
2019-04-06T11:13:41.079Z,29.60
2019-04-06T11:16:26.670Z,29.70
2019-04-06T11:19:15.357Z,29.90
2019-04-06T11:22:02.516Z,30.00
2019-04-06T11:24:46.331Z,29.50
2019-04-06T11:27:42.959Z,29.00
2019-04-06T11:30:21.184Z,28.60
2019-04-06T11:33:22.012Z,27.80
2019-04-06T11:36:28.461Z,28.00
2019-04-06T11:39:16.815Z,28.30
2019-04-06T11:41:57.675Z,26.70
2019-04-06T11:44:41.579Z,26.10
2019-04-06T11:47:26.137Z,25.10
2019-04-06T11:50:32.800Z,25.20
2019-04-06T11:53:21.527Z,24.10
2019-04-06T11:56:08.263Z,24.40
2019-04-06T11:58:49.238Z,24.20
2019-04-06T12:01:40.577Z,23.70
2019-04-06T12:04:27.539Z,24.20
2019-04-06T12:07:21.604Z,23.70
2019-04-06T12:10:19.460Z,22.90
2019-04-06T12:12:56.916Z,24.10
2019-04-06T12:15:48.520Z,23.30
2019-04-06T12:18:37.537Z,23.50
2019-04-06T12:21:44.353Z,23.70
2019-04-06T12:24:29.353Z,23.60
2019-04-06T12:27:26.686Z,22.00
2019-04-06T12:30:02.677Z,21.30
2019-04-06T12:33:00.091Z,21.60
2019-04-06T12:35:57.383Z,21.10
2019-04-06T12:38:32.589Z,21.50
2019-04-06T12:41:21.003Z,21.10
2019-04-06T12:44:04.394Z,20.30
2019-04-06T12:46:44.174Z,19.50
2019-04-06T12:49:31.452Z,19.50
2019-04-06T12:52:18.316Z,18.80
2019-04-06T12:54:54.649Z,18.70
2019-04-06T12:57:30.822Z,18.40
2019-04-06T13:00:17.915Z,18.10
2019-04-06T13:03:09.479Z,17.70
2019-04-06T13:06:15.944Z,17.20
2019-04-06T13:09:05.568Z,16.10
2019-04-06T13:12:03.281Z,16.80
2019-04-06T13:14:37.901Z,16.90
2019-04-06T13:17:09.515Z,17.10
2019-04-06T13:20:00.730Z,16.40
2019-04-06T13:22:43.446Z,16.40
2019-04-06T13:25:37.966Z,16.00
2019-04-06T13:28:16.928Z,15.20
2019-04-06T13:31:05.401Z,14.80
2019-04-06T13:33:42.838Z,14.90
2019-04-06T13:36:31.308Z,15.30
2019-04-06T13:39:31.733Z,14.10
2019-04-06T13:42:21.228Z,14.70
2019-04-06T13:44:57.141Z,14.10
2019-04-06T13:47:55.114Z,14.20
2019-04-06T13:50:43.314Z,14.20
2019-04-06T13:53:34.870Z,14.80
2019-04-06T13:56:20.697Z,14.10
2019-04-06T13:58:59.786Z,14.20
2019-04-06T14:01:57.144Z,14.20
2019-04-06T14:04:34.594Z,13.20
2019-04-06T14:07:22.539Z,13.10
2019-04-06T14:10:02.179Z,12.90
2019-04-06T14:12:49.215Z,13.50
2019-04-06T14:15:45.487Z,12.30
2019-04-06T14:18:26.234Z,12.30
2019-04-06T14:21:21.007Z,11.70
2019-04-06T14:23:56.522Z,11.60
2019-04-06T14:26:47.778Z,10.40
2019-04-06T14:29:39.284Z,10.80
2019-04-06T14:32:17.161Z,10.00
2019-04-06T14:35:02.917Z,9.20
2019-04-06T14:37:54.604Z,8.00
2019-04-06T14:40:49.298Z,7.00
2019-04-06T14:43:43.792Z,6.40
2019-04-06T14:46:34.949Z,6.60
2019-04-06T14:49:30.828Z,5.40
2019-04-06T14:52:05.380Z,5.50
2019-04-06T14:54:54.352Z,4.80
2019-04-06T14:57:32.964Z,4.00
2019-04-06T15:00:19.871Z,3.30
2019-04-06T15:03:07.090Z,2.90
2019-04-06T15:05:46.368Z,2.30
2019-04-06T15:08:33.399Z,1.50
2019-04-06T15:11:13.752Z,1.00
2019-04-06T15:13:56.930Z,1.00
2019-04-06T15:16:37.906Z,1.00
2019-04-06T15:19:23.468Z,1.00
2019-04-06T15:22:16.568Z,1.00
2019-04-06T15:25:08.095Z,1.00
2019-04-06T15:27:49.679Z,1.00
2019-04-06T15:30:47.453Z,1.00
2019-04-06T15:33:34.743Z,1.00
2019-04-06T15:36:21.828Z,1.00
2019-04-06T15:39:07.679Z,1.50
2019-04-06T15:41:56.181Z,1.90
2019-04-06T15:44:58.898Z,2.20
2019-04-06T15:47:47.353Z,2.50
2019-04-06T15:50:34.225Z,2.70
2019-04-06T15:53:37.639Z,3.00
2019-04-06T15:56:18.601Z,3.10
2019-04-06T15:59:05.596Z,3.40
2019-04-06T16:01:43.016Z,3.60
2019-04-06T16:04:37.663Z,3.70
2019-04-06T16:07:31.217Z,3.10
2019-04-06T16:10:20.871Z,3.20
2019-04-06T16:13:01.389Z,2.70
2019-04-06T16:15:41.398Z,2.70
2019-04-06T16:18:27.044Z,2.70
2019-04-06T16:21:12.119Z,2.80
2019-04-06T16:24:02.151Z,3.10
2019-04-06T16:26:40.473Z,2.80
2019-04-06T16:29:38.091Z,3.00
2019-04-06T16:32:18.165Z,2.50
2019-04-06T16:35:09.663Z,2.60
2019-04-06T16:37:49.173Z,2.90
2019-04-06T16:40:35.140Z,3.20
2019-04-06T16:43:18.022Z,3.70
2019-04-06T16:46:09.488Z,3.90
2019-04-06T16:48:56.896Z,4.20
2019-04-06T16:51:39.518Z,4.90
2019-04-06T16:54:32.141Z,5.60
2019-04-06T16:57:21.136Z,5.90
2019-04-06T16:59:59.528Z,6.00
2019-04-06T17:02:43.775Z,5.90
2019-04-06T17:05:41.773Z,5.90
2019-04-06T17:08:27.097Z,5.80
2019-04-06T17:11:30.695Z,5.90
2019-04-06T17:14:31.094Z,6.90
2019-04-06T17:17:34.431Z,7.30
2019-04-06T17:20:23.033Z,8.00
2019-04-06T17:23:23.917Z,8.50
2019-04-06T17:26:11.527Z,9.20
2019-04-06T17:29:02.776Z,9.50
2019-04-06T17:31:51.503Z,10.50
2019-04-06T17:34:57.971Z,11.60
2019-04-06T17:37:41.909Z,12.30
2019-04-06T17:40:32.448Z,12.90
2019-04-06T17:43:25.368Z,13.00
2019-04-06T17:46:13.972Z,13.80
2019-04-06T17:49:11.422Z,14.40
2019-04-06T17:51:49.855Z,15.20
2019-04-06T17:54:27.667Z,15.80
2019-04-06T17:57:09.875Z,16.20
2019-04-06T18:00:13.269Z,16.90
2019-04-06T18:03:19.886Z,17.50
2019-04-06T18:06:02.784Z,18.40
2019-04-06T18:08:55.781Z,19.20
2019-04-06T18:11:53.080Z,20.70
2019-04-06T18:14:22.656Z,21.00
2019-04-06T18:16:52.773Z,21.90
2019-04-06T18:19:22.336Z,22.60
2019-04-06T18:21:51.934Z,23.40
2019-04-06T18:24:21.754Z,23.50
2019-04-06T18:26:51.911Z,24.20
2019-04-06T18:29:21.625Z,24.40
2019-04-06T18:31:56.827Z,25.00
2019-04-06T18:34:26.719Z,25.00
2019-04-06T18:37:18.022Z,25.80
2019-04-06T18:39:48.096Z,25.70
2019-04-06T18:42:17.682Z,26.30
2019-04-06T18:44:47.299Z,26.80
2019-04-06T18:47:16.924Z,27.40
2019-04-06T18:49:46.762Z,28.20
2019-04-06T18:52:16.774Z,28.50
2019-04-06T18:54:46.663Z,28.70
2019-04-06T18:57:16.254Z,29.10
2019-04-06T18:59:46.064Z,29.10
2019-04-06T19:02:15.726Z,30.20
2019-04-06T19:04:45.827Z,30.30
2019-04-06T19:07:15.458Z,30.70
2019-04-06T19:09:45.287Z,31.40
2019-04-06T19:12:15.687Z,31.50
2019-04-06T19:14:45.562Z,31.50
2019-04-06T19:17:15.176Z,32.50
2019-04-06T19:19:44.745Z,33.30
2019-04-06T19:22:14.633Z,33.70
2019-04-06T19:24:44.569Z,34.90
2019-04-06T19:27:14.160Z,35.70
2019-04-06T19:29:43.937Z,36.90
2019-04-06T19:32:13.496Z,36.90
2019-04-06T19:34:43.107Z,37.10
2019-04-06T19:37:12.806Z,37.40
2019-04-06T19:39:42.445Z,37.40
2019-04-06T19:42:12.682Z,37.50
2019-04-06T19:44:42.521Z,37.80
2019-04-06T19:47:12.116Z,37.70
2019-04-06T19:49:41.975Z,37.50
2019-04-06T19:52:11.794Z,37.70
2019-04-06T19:54:42.336Z,37.70
2019-04-06T19:57:11.961Z,38.60
2019-04-06T19:59:41.579Z,39.00
2019-04-06T20:02:11.435Z,39.10
2019-04-06T20:04:41.266Z,39.30
2019-04-06T20:07:11.620Z,40.00
2019-04-06T20:09:41.385Z,39.80
2019-04-06T20:12:11.512Z,39.70
2019-04-06T20:14:41.176Z,38.90
2019-04-06T20:17:10.773Z,38.60
2019-04-06T20:19:40.661Z,39.20
2019-04-06T20:22:10.347Z,39.20
2019-04-06T20:24:39.876Z,38.90
2019-04-06T20:27:09.512Z,38.00
2019-04-06T20:29:39.495Z,38.30
2019-04-06T20:32:09.043Z,38.10
2019-04-06T20:34:38.987Z,37.60
2019-04-06T20:37:08.844Z,37.60
2019-04-06T20:39:38.422Z,37.80
2019-04-06T20:42:08.019Z,37.80
2019-04-06T20:44:38.125Z,38.10
2019-04-06T20:47:07.834Z,37.50
2019-04-06T20:49:37.452Z,38.40
2019-04-06T20:52:07.260Z,38.50
2019-04-06T20:54:37.351Z,38.60
2019-04-06T20:57:07.587Z,39.80
2019-04-06T20:59:37.170Z,39.40
2019-04-06T21:02:06.770Z,39.80
2019-04-06T21:04:36.368Z,40.10
2019-04-06T21:07:05.943Z,40.20
2019-04-06T21:09:36.065Z,40.00
2019-04-06T21:12:06.771Z,40.50
2019-04-06T21:14:37.064Z,40.50
2019-04-06T21:17:07.214Z,41.00
2019-04-06T21:19:37.075Z,40.90
2019-04-06T21:22:06.885Z,41.20
2019-04-06T21:24:37.315Z,41.40
2019-04-06T21:27:07.701Z,41.30
2019-04-06T21:29:38.139Z,42.00
2019-04-06T21:32:07.870Z,41.80
2019-04-06T21:34:37.417Z,41.60
2019-04-06T21:37:06.991Z,41.40
2019-04-06T21:39:37.112Z,41.40
2019-04-06T21:42:06.880Z,40.40
2019-04-06T21:44:37.603Z,41.40
2019-04-06T21:47:08.093Z,40.60
2019-04-06T21:49:37.645Z,40.80
2019-04-06T21:52:07.573Z,40.30
2019-04-06T21:54:37.157Z,40.70
2019-04-06T21:57:07.147Z,40.90
2019-04-06T21:59:37.218Z,41.10
2019-04-06T22:02:07.099Z,41.00
2019-04-06T22:04:37.420Z,40.50
2019-04-06T22:07:07.540Z,41.00
2019-04-06T22:09:37.092Z,40.40
2019-04-06T22:12:07.218Z,41.10
2019-04-06T22:14:37.057Z,40.80
2019-04-06T22:17:07.404Z,40.50
2019-04-06T22:19:37.072Z,40.40
2019-04-06T22:22:06.945Z,39.80
2019-04-06T22:24:37.017Z,40.40
2019-04-06T22:27:07.634Z,39.80
2019-04-06T22:29:37.978Z,40.60
2019-04-06T22:32:07.873Z,40.70
2019-04-06T22:34:40.164Z,40.00
2019-04-06T22:37:08.856Z,40.10
2019-04-06T22:39:38.666Z,40.20
2019-04-06T22:42:08.899Z,40.90
2019-04-06T22:44:38.711Z,41.00
2019-04-06T22:47:08.261Z,41.80
2019-04-06T22:49:38.740Z,41.20
2019-04-06T22:52:08.892Z,40.50
2019-04-06T22:54:38.782Z,41.30
2019-04-06T22:57:08.336Z,41.20
2019-04-06T22:59:38.182Z,41.60
2019-04-06T23:02:07.749Z,41.70
2019-04-06T23:04:51.247Z,41.90
2019-04-06T23:07:23.300Z,42.30
2019-04-06T23:09:53.128Z,42.70
2019-04-06T23:12:22.673Z,43.10
2019-04-06T23:14:52.225Z,43.50
2019-04-06T23:17:22.420Z,43.10
2019-04-06T23:19:52.337Z,44.00
2019-04-06T23:22:22.426Z,44.30
2019-04-06T23:24:52.569Z,43.70
2019-04-06T23:27:22.699Z,44.40
2019-04-06T23:29:52.207Z,44.20
2019-04-06T23:32:22.681Z,43.60
2019-04-06T23:35:01.188Z,44.30
2019-04-06T23:37:24.311Z,45.10
2019-04-06T23:39:53.869Z,44.80
2019-04-06T23:42:24.555Z,45.70
2019-04-06T23:44:54.184Z,45.70
2019-04-06T23:47:24.017Z,45.70
2019-04-06T23:49:53.556Z,45.50
2019-04-06T23:52:23.108Z,45.20
2019-04-06T23:54:53.316Z,45.50
2019-04-06T23:57:23.188Z,44.50
2019-04-06T23:59:53.245Z,45.20
